Time;durP1;ratioP1;P1;durP2;ratioP2;P2;SDS_P1;SDS_P2;PMS_P1;PMS_P2;Temp;Humidity;BMP_temperature;BMP_pressure;BME280_temperature;BME280_humidity;BME280_pressure;Samples;Min_cycle;Max_cycle;Signal;HPM_P1;HPM_P2
2021/07/12 00:01:13;;;;;;;;;3.75;3.75;;;;;19.22;67.06;100837.97;5049562;28;45611;-72
2021/07/12 00:03:38;;;;;;;;;4.00;3.00;;;;;19.21;67.40;100833.63;5049530;28;46027;-70
2021/07/12 00:06:03;;;;;;;;;4.50;3.75;;;;;19.17;67.43;100827.84;5039229;28;45612;-67
2021/07/12 00:08:29;;;;;;;;;3.50;3.00;;;;;19.16;67.59;100822.69;5050021;28;45491;-71
2021/07/12 00:10:54;;;;;;;;;4.50;4.50;;;;;19.12;67.68;100815.06;5044965;28;45541;-70
2021/07/12 00:13:19;;;;;;;;;5.25;4.00;;;;;19.07;67.46;100806.81;5051107;28;45651;-72
2021/07/12 00:15:45;;;;;;;;;3.00;3.00;;;;;19.02;67.47;100808.47;5049630;28;45728;-71
2021/07/12 00:18:10;;;;;;;;;5.25;4.00;;;;;19.00;67.58;100807.84;5053301;28;45444;-68
2021/07/12 00:20:36;;;;;;;;;4.25;4.25;;;;;18.96;67.97;100799.38;5050413;28;45848;-71
2021/07/12 00:23:01;;;;;;;;;3.50;3.00;;;;;18.94;67.88;100793.41;5048418;28;46055;-71
2021/07/12 00:25:29;;;;;;;;;3.75;3.75;;;;;18.93;67.67;100786.38;5054105;28;46564;-70
2021/07/12 00:27:56;;;;;;;;;3.75;2.75;;;;;18.91;68.18;100773.19;5052636;28;45502;-72
2021/07/12 00:30:23;;;;;;;;;2.50;2.50;;;;;18.90;68.44;100768.06;5048700;28;45583;-72
2021/07/12 00:32:50;;;;;;;;;3.25;3.00;;;;;18.86;68.64;100772.16;5049229;28;45251;-69
2021/07/12 00:35:16;;;;;;;;;4.25;4.00;;;;;18.82;68.75;100774.44;5055393;28;45674;-70
2021/07/12 00:37:43;;;;;;;;;4.00;4.00;;;;;18.78;69.17;100770.50;5051046;28;45663;-70
2021/07/12 00:40:11;;;;;;;;;1.25;1.00;;;;;18.76;69.10;100763.69;5050786;28;45602;-71
2021/07/12 00:42:38;;;;;;;;;3.50;3.50;;;;;18.76;68.92;100761.03;5049982;28;45477;-71
2021/07/12 00:45:08;;;;;;;;;5.50;4.00;;;;;18.72;69.13;100776.66;5055561;28;45574;-68
2021/07/12 00:47:34;;;;;;;;;4.50;3.50;;;;;18.70;69.16;100790.22;5051526;28;45550;-71
2021/07/12 00:49:59;;;;;;;;;3.75;3.75;;;;;18.70;69.48;100827.69;5047134;28;45640;-72
2021/07/12 00:52:25;;;;;;;;;4.75;4.25;;;;;18.70;70.23;100826.88;5047417;28;45565;-69
2021/07/12 00:54:51;;;;;;;;;4.00;4.00;;;;;18.66;69.93;100815.72;5065818;27;45541;-72
2021/07/12 00:57:16;;;;;;;;;5.50;4.00;;;;;18.66;69.76;100815.72;5048881;28;45513;-70
2021/07/12 00:59:42;;;;;;;;;5.50;4.00;;;;;18.64;69.80;100823.16;5047907;28;48275;-70
2021/07/12 01:02:07;;;;;;;;;4.00;4.00;;;;;18.64;70.00;100819.63;5055822;28;45453;-68
2021/07/12 01:04:34;;;;;;;;;3.00;3.00;;;;;18.61;69.89;100812.84;5054206;28;45400;-71
2021/07/12 01:06:59;;;;;;;;;4.50;3.50;;;;;18.62;69.70;100819.00;5052892;28;45480;-72
2021/07/12 01:09:24;;;;;;;;;3.75;3.50;;;;;18.63;70.25;100823.34;5051074;28;46322;-69
2021/07/12 01:11:57;;;;;;;;;4.00;4.00;;;;;18.62;70.51;100811.81;5049910;28;45486;-71
2021/07/12 01:14:31;;;;;;;;;2.50;2.50;;;;;18.63;70.23;100802.75;5042090;28;45500;-69
2021/07/12 01:17:11;;;;;;;;;5.75;3.75;;;;;18.64;69.80;100785.69;5053051;28;45311;-68
2021/07/12 01:20:06;;;;;;;;;4.50;3.50;;;;;18.64;70.19;100783.00;5047994;28;47039;-69
2021/07/12 01:22:53;;;;;;;;;4.00;4.00;;;;;18.66;70.32;100770.22;5045836;28;45876;-73
2021/07/12 01:25:45;;;;;;;;;4.25;4.00;;;;;18.66;70.24;100762.19;5045483;28;45709;-69
2021/07/12 01:28:48;;;;;;;;;3.50;3.50;;;;;18.67;69.76;100749.66;5044791;28;46105;-71
2021/07/12 01:31:27;;;;;;;;;3.75;3.75;;;;;18.67;69.61;100744.31;5046925;28;47004;-69
2021/07/12 01:34:09;;;;;;;;;4.50;4.50;;;;;18.68;70.06;100743.25;5047196;28;45583;-72
2021/07/12 01:36:57;;;;;;;;;5.00;4.00;;;;;18.67;70.19;100737.09;5047821;28;45505;-70
2021/07/12 01:39:28;;;;;;;;;4.25;3.75;;;;;18.65;70.36;100733.78;5052312;27;45600;-72
2021/07/12 01:42:08;;;;;;;;;3.50;3.50;;;;;18.63;70.07;100733.16;5051325;28;46219;-68
2021/07/12 01:44:47;;;;;;;;;3.75;3.75;;;;;18.63;72.12;100733.16;5050484;28;45727;-70
2021/07/12 01:47:18;;;;;;;;;4.50;4.00;;;;;18.61;70.33;100726.34;5048325;28;45668;-71
2021/07/12 01:49:55;;;;;;;;;5.50;4.50;;;;;18.58;72.03;100722.25;5048859;28;45530;-71
2021/07/12 01:52:48;;;;;;;;;4.00;4.00;;;;;18.55;71.70;100719.97;5047038;28;45504;-70
2021/07/12 01:55:24;;;;;;;;;4.00;4.00;;;;;18.53;72.66;100713.19;5045849;28;45536;-67
2021/07/12 01:57:58;;;;;;;;;4.00;3.00;;;;;18.46;71.39;100713.16;5053586;28;45564;-72
2021/07/12 02:00:24;;;;;;;;;6.00;4.00;;;;;18.42;73.83;100711.88;5050150;28;45520;-70
2021/07/12 02:02:54;;;;;;;;;3.25;2.75;;;;;18.40;71.41;100714.78;5038853;28;45493;-70
2021/07/12 02:05:22;;;;;;;;;4.50;4.25;;;;;18.41;71.69;100707.56;5049812;28;45427;-69
2021/07/12 02:07:51;;;;;;;;;5.25;5.25;;;;;18.45;71.38;100711.50;5052334;28;45532;-71
2021/07/12 02:10:20;;;;;;;;;4.00;4.00;;;;;18.48;72.04;100716.44;5033161;28;45589;-73
2021/07/12 02:12:48;;;;;;;;;4.75;4.75;;;;;18.50;71.45;100719.75;5047692;28;46388;-69
2021/07/12 02:15:14;;;;;;;;;3.00;3.00;;;;;18.55;71.21;100719.16;5061943;28;45457;-67
2021/07/12 02:17:41;;;;;;;;;4.75;4.75;;;;;18.56;71.07;100708.22;5052797;28;45511;-69
2021/07/12 02:20:09;;;;;;;;;3.25;3.00;;;;;18.59;70.99;100721.19;5049145;28;45453;-71
2021/07/12 02:22:36;;;;;;;;;4.25;4.25;;;;;18.62;71.73;100718.13;5048024;28;45608;-68
2021/07/12 02:25:03;;;;;;;;;3.50;3.50;;;;;18.63;71.04;100714.44;5048527;28;45547;-67
2021/07/12 02:27:32;;;;;;;;;3.25;3.25;;;;;18.67;71.39;100718.34;5051707;28;45881;-70
2021/07/12 02:29:57;;;;;;;;;4.75;3.75;;;;;18.67;71.43;100725.56;5049398;28;45628;-71
2021/07/12 02:32:25;;;;;;;;;5.75;4.50;;;;;18.69;71.08;100731.50;5051894;28;45251;-70
2021/07/12 02:34:51;;;;;;;;;4.50;4.25;;;;;18.71;71.23;100732.16;5046341;28;45522;-71
2021/07/12 02:37:18;;;;;;;;;5.25;3.75;;;;;18.73;70.72;100731.94;5047727;28;45534;-73
2021/07/12 02:39:46;;;;;;;;;4.50;4.50;;;;;18.75;70.51;100732.56;5050013;28;45471;-71
2021/07/12 02:42:12;;;;;;;;;4.25;4.25;;;;;18.76;70.60;100721.69;5048071;28;45804;-71
2021/07/12 02:44:40;;;;;;;;;3.75;3.75;;;;;18.77;70.62;100720.66;5047604;28;45611;-70
2021/07/12 02:47:06;;;;;;;;;4.75;2.75;;;;;18.80;71.07;100716.75;5053383;28;45438;-71
2021/07/12 02:49:33;;;;;;;;;3.50;3.50;;;;;18.81;70.41;100710.38;5053363;28;45413;-67
2021/07/12 02:52:02;;;;;;;;;3.00;3.00;;;;;18.81;70.50;100713.84;5047855;28;45482;-71
2021/07/12 02:54:35;;;;;;;;;3.75;3.75;;;;;18.83;70.68;100722.53;5045311;28;45305;-70
2021/07/12 02:57:01;;;;;;;;;3.25;3.25;;;;;18.82;70.87;100723.56;5047520;28;45968;-68
2021/07/12 02:59:27;;;;;;;;;5.00;3.25;;;;;18.80;70.68;100730.97;5046341;28;56464;-70
2021/07/12 03:01:52;;;;;;;;;5.00;3.25;;;;;18.74;70.34;100726.38;5048830;28;45603;-70
2021/07/12 03:04:18;;;;;;;;;1.25;0.75;;;;;18.70;71.00;100734.00;5046636;28;45480;-71
2021/07/12 03:06:48;;;;;;;;;4.50;4.50;;;;;18.66;70.59;100719.38;5048438;28;45617;-67
2021/07/12 03:09:28;;;;;;;;;4.75;4.25;;;;;18.62;70.89;100706.59;5045211;28;45905;-72
2021/07/12 03:11:59;;;;;;;;;4.50;4.00;;;;;18.57;71.25;100695.66;5039853;28;45482;-69
2021/07/12 03:14:37;;;;;;;;;4.25;4.25;;;;;18.52;73.47;100690.94;5052469;28;45569;-70
2021/07/12 03:17:05;;;;;;;;;4.00;4.00;;;;;18.46;72.99;100691.75;5049895;28;45639;-70
2021/07/12 03:19:35;;;;;;;;;5.50;5.00;;;;;18.41;73.06;100687.00;5051336;28;45469;-70
2021/07/12 03:22:05;;;;;;;;;4.75;3.50;;;;;18.38;72.51;100681.22;5050149;28;46010;-72
2021/07/12 03:24:31;;;;;;;;;3.50;3.25;;;;;18.38;72.46;100683.91;5043695;28;45435;-68
2021/07/12 03:27:03;;;;;;;;;3.50;3.50;;;;;18.38;72.82;100682.03;5052799;28;45541;-68
2021/07/12 03:29:30;;;;;;;;;5.25;5.25;;;;;18.39;73.32;100675.66;5050659;28;45439;-68
2021/07/12 03:31:58;;;;;;;;;4.00;4.00;;;;;18.42;73.27;100663.72;5053352;28;45421;-70
2021/07/12 03:34:27;;;;;;;;;3.50;3.50;;;;;18.44;73.49;100667.84;5048633;28;45907;-75
2021/07/12 03:36:53;;;;;;;;;5.75;5.00;;;;;18.45;73.27;100658.81;5050196;28;45500;-72
2021/07/12 03:39:21;;;;;;;;;6.00;4.00;;;;;18.46;73.40;100651.59;5032730;28;45474;-72
2021/07/12 03:41:46;;;;;;;;;5.75;3.75;;;;;18.48;73.00;100652.22;5049591;28;46424;-74
2021/07/12 03:44:12;;;;;;;;;6.25;5.50;;;;;18.48;73.30;100653.03;5055283;28;45432;-67
2021/07/12 03:46:42;;;;;;;;;4.50;4.50;;;;;18.49;72.90;100651.19;5053915;28;45450;-70
2021/07/12 03:49:13;;;;;;;;;6.00;5.75;;;;;18.50;73.69;100644.00;5055770;28;45488;-72
2021/07/12 03:51:40;;;;;;;;;5.00;4.00;;;;;18.49;73.59;100648.50;5043746;28;46408;-72
2021/07/12 03:54:06;;;;;;;;;5.25;4.50;;;;;18.48;72.87;100654.91;5054038;28;45488;-71
2021/07/12 03:56:33;;;;;;;;;6.00;6.00;;;;;18.46;73.20;100654.28;5048233;28;45864;-71
2021/07/12 03:58:59;;;;;;;;;4.25;4.25;;;;;18.42;73.02;100647.66;5052389;28;45424;-69
2021/07/12 04:01:24;;;;;;;;;4.50;4.50;;;;;18.38;73.81;100641.09;5048513;28;45453;-71
2021/07/12 04:03:52;;;;;;;;;5.00;5.00;;;;;18.35;73.02;100636.97;5047555;28;45507;-66
2021/07/12 04:06:18;;;;;;;;;5.00;4.00;;;;;18.35;73.99;100638.84;5043871;28;45754;-72
2021/07/12 04:08:43;;;;;;;;;6.25;4.25;;;;;18.34;72.79;100637.16;5044371;28;45679;-74
2021/07/12 04:11:12;;;;;;;;;4.50;3.25;;;;;18.35;72.78;100638.84;5049438;28;46150;-69
2021/07/12 04:13:39;;;;;;;;;8.25;5.75;;;;;18.36;73.14;100635.94;5046267;28;45805;-74
2021/07/12 04:16:04;;;;;;;;;5.50;5.00;;;;;18.38;73.34;100633.88;5046480;28;45428;-70
2021/07/12 04:18:30;;;;;;;;;4.50;4.50;;;;;18.40;72.38;100636.38;5045758;28;45706;-74
2021/07/12 04:20:55;;;;;;;;;4.00;4.00;;;;;18.40;72.30;100629.16;5045244;28;45595;-75
2021/07/12 04:23:21;;;;;;;;;4.00;4.00;;;;;18.38;71.64;100633.06;5052366;28;45406;-70
2021/07/12 04:25:46;;;;;;;;;4.25;3.50;;;;;18.37;72.68;100637.59;5052095;28;45534;-68
2021/07/12 04:28:11;;;;;;;;;4.00;4.00;;;;;18.35;72.27;100626.28;5045780;28;45831;-72
2021/07/12 04:30:37;;;;;;;;;4.75;4.00;;;;;18.35;72.02;100620.09;5056457;28;45526;-68
2021/07/12 04:33:02;;;;;;;;;2.50;2.50;;;;;18.33;71.69;100622.16;5045543;28;45553;-67
2021/07/12 04:35:28;;;;;;;;;4.00;3.00;;;;;18.32;72.34;100631.19;5046597;28;45573;-67
2021/07/12 04:37:53;;;;;;;;;2.75;2.75;;;;;18.32;72.22;100623.16;5051967;28;46061;-73
2021/07/12 04:40:19;;;;;;;;;4.25;3.25;;;;;18.33;73.03;100625.66;5051038;28;46223;-72
2021/07/12 04:42:44;;;;;;;;;4.00;4.00;;;;;18.36;72.24;100624.41;5048644;28;45509;-68
2021/07/12 04:45:10;;;;;;;;;3.75;3.75;;;;;18.35;72.00;100620.94;5047076;28;45599;-70
2021/07/12 04:47:35;;;;;;;;;5.25;4.00;;;;;18.36;72.65;100627.91;5050523;28;45660;-66
2021/07/12 04:50:01;;;;;;;;;3.00;3.00;;;;;18.40;73.55;100634.50;5048787;28;45460;-70
2021/07/12 04:52:27;;;;;;;;;4.50;4.50;;;;;18.41;73.03;100629.97;5048133;28;45414;-68
2021/07/12 04:54:52;;;;;;;;;5.00;4.00;;;;;18.44;73.13;100626.88;5044178;28;46042;-68
2021/07/12 04:57:17;;;;;;;;;4.00;4.00;;;;;18.47;73.89;100631.81;5047704;28;45555;-73
2021/07/12 04:59:44;;;;;;;;;2.50;2.50;;;;;18.47;74.06;100630.00;5045830;28;45643;-70
2021/07/12 05:02:12;;;;;;;;;2.50;2.50;;;;;18.49;73.41;100643.16;5047423;28;45540;-73
2021/07/12 05:04:38;;;;;;;;;2.75;2.75;;;;;18.49;74.48;100635.13;5043061;28;45610;-70
2021/07/12 05:07:04;;;;;;;;;3.75;3.25;;;;;18.51;73.71;100646.47;5044765;28;45594;-70
2021/07/12 05:09:30;;;;;;;;;3.00;2.50;;;;;18.51;74.40;100635.75;5044841;28;45503;-72
2021/07/12 05:11:56;;;;;;;;;4.75;4.75;;;;;18.51;72.58;100635.75;5032978;28;45572;-72
2021/07/12 05:14:24;;;;;;;;;4.50;3.00;;;;;18.49;72.00;100637.81;5051371;28;45766;-72
2021/07/12 05:16:52;;;;;;;;;3.00;3.00;;;;;18.51;73.41;100638.44;5051417;28;45382;-67
2021/07/12 05:19:18;;;;;;;;;3.25;3.25;;;;;18.52;74.50;100637.41;5043139;28;46249;-67
2021/07/12 05:21:45;;;;;;;;;4.25;2.75;;;;;18.53;74.19;100635.56;5047651;28;45601;-70
2021/07/12 05:24:10;;;;;;;;;2.50;2.50;;;;;18.54;74.15;100627.31;5048775;28;45612;-74
2021/07/12 05:26:36;;;;;;;;;3.00;3.00;;;;;18.56;73.67;100632.47;5054351;28;45624;-66
2021/07/12 05:29:01;;;;;;;;;3.50;3.50;;;;;18.56;74.05;100624.44;5050398;28;45533;-67
2021/07/12 05:31:27;;;;;;;;;4.00;3.75;;;;;18.55;74.41;100620.94;5048297;28;45758;-72
2021/07/12 05:33:53;;;;;;;;;4.00;3.75;;;;;18.53;74.22;100623.00;5048516;28;46091;-72
2021/07/12 05:36:19;;;;;;;;;3.00;3.00;;;;;18.54;75.41;100618.47;5045620;28;45700;-67
2021/07/12 05:38:44;;;;;;;;;5.50;4.00;;;;;18.51;74.15;100624.22;5050024;28;46323;-69
2021/07/12 05:41:09;;;;;;;;;5.75;4.50;;;;;18.45;73.42;100618.66;5047366;28;45564;-71
2021/07/12 05:43:35;;;;;;;;;4.75;4.75;;;;;18.45;74.04;100626.69;5045393;28;46034;-65
2021/07/12 05:46:01;;;;;;;;;4.00;4.00;;;;;18.42;73.22;100619.09;5046483;28;45502;-70
2021/07/12 05:48:27;;;;;;;;;5.00;4.50;;;;;18.41;74.51;100621.94;5051297;28;45510;-72
2021/07/12 05:50:52;;;;;;;;;5.25;3.25;;;;;18.41;74.49;100620.09;5045263;28;45588;-73
2021/07/12 05:53:18;;;;;;;;;5.50;5.50;;;;;18.44;74.05;100619.69;5047712;28;45507;-68
2021/07/12 05:55:44;;;;;;;;;6.00;4.50;;;;;18.41;74.41;100629.97;5048294;28;45451;-68
2021/07/12 05:58:10;;;;;;;;;4.00;4.00;;;;;18.38;75.02;100619.69;5051345;28;45730;-71
2021/07/12 06:00:35;;;;;;;;;4.75;4.75;;;;;18.37;75.37;100618.88;5044371;28;45992;-68
2021/07/12 06:03:01;;;;;;;;;6.50;4.50;;;;;18.36;75.42;100611.84;5047977;28;46021;-71
2021/07/12 06:05:26;;;;;;;;;5.50;3.50;;;;;18.38;75.29;100617.03;5048599;28;45466;-73
2021/07/12 06:07:51;;;;;;;;;4.75;4.75;;;;;18.37;75.44;100605.50;5050100;28;46345;-69
2021/07/12 06:10:17;;;;;;;;;5.25;5.25;;;;;18.35;76.55;100612.09;5055148;28;45616;-66
2021/07/12 06:12:43;;;;;;;;;6.00;6.00;;;;;18.33;76.10;100604.25;5048202;28;45636;-68
2021/07/12 06:15:09;;;;;;;;;5.00;5.00;;;;;18.33;75.61;100606.09;5047027;28;45405;-67
2021/07/12 06:17:35;;;;;;;;;7.00;5.00;;;;;18.33;76.42;100606.09;5045720;28;46216;-72
2021/07/12 06:20:01;;;;;;;;;5.00;5.00;;;;;18.30;76.87;100604.66;5052244;28;45581;-72
2021/07/12 06:22:26;;;;;;;;;4.75;4.75;;;;;18.33;76.44;100608.78;5044315;28;45803;-69
2021/07/12 06:24:52;;;;;;;;;6.00;6.00;;;;;18.32;76.87;100610.59;5047306;28;45639;-74
2021/07/12 06:27:17;;;;;;;;;6.50;5.50;;;;;18.27;76.53;100608.56;5030806;28;46926;-74
2021/07/12 06:29:43;;;;;;;;;7.50;6.75;;;;;18.25;77.50;100607.94;5038542;28;45933;-69
2021/07/12 06:32:08;;;;;;;;;6.25;4.75;;;;;18.23;76.22;100610.00;5051670;28;45659;-74
2021/07/12 06:34:34;;;;;;;;;6.00;5.50;;;;;18.23;77.22;100618.00;5049074;28;45990;-69
2021/07/12 06:37:00;;;;;;;;;9.75;7.00;;;;;18.21;76.72;100608.53;5044959;28;46240;-71
2021/07/12 06:39:25;;;;;;;;;6.00;6.00;;;;;18.19;76.93;100603.38;5046768;28;45615;-72
2021/07/12 06:41:50;;;;;;;;;6.50;6.50;;;;;18.17;77.12;100592.06;5047559;28;45535;-73
2021/07/12 06:44:16;;;;;;;;;6.50;6.50;;;;;18.15;78.41;100585.25;5052109;28;45754;-69
2021/07/12 06:46:41;;;;;;;;;10.75;8.00;;;;;18.12;78.70;100577.66;5047337;28;45455;-69
2021/07/12 06:49:06;;;;;;;;;7.25;7.25;;;;;18.07;78.38;100572.91;5052175;28;46766;-71
2021/07/12 06:51:32;;;;;;;;;11.00;9.00;;;;;18.02;78.18;100564.66;5049669;28;45787;-71
2021/07/12 06:53:58;;;;;;;;;10.00;8.75;;;;;17.99;77.86;100567.75;5050351;28;45469;-71
2021/07/12 06:56:23;;;;;;;;;9.50;8.50;;;;;17.96;79.34;100568.16;5053125;28;46352;-72
2021/07/12 06:58:48;;;;;;;;;10.00;9.00;;;;;17.95;79.24;100561.16;5049923;28;45534;-70
2021/07/12 07:01:14;;;;;;;;;9.50;8.00;;;;;17.92;79.55;100565.06;5049680;28;45466;-70
2021/07/12 07:03:40;;;;;;;;;8.00;6.75;;;;;17.88;79.56;100571.00;5034393;28;45782;-70
2021/07/12 07:06:06;;;;;;;;;9.25;7.25;;;;;17.83;79.94;100572.44;5048343;28;45499;-72
2021/07/12 07:08:31;;;;;;;;;10.25;7.75;;;;;17.83;80.89;100576.97;5051542;28;45448;-74
2021/07/12 07:10:57;;;;;;;;;10.75;9.00;;;;;17.83;80.10;100585.81;5054530;28;45816;-70
2021/07/12 07:13:23;;;;;;;;;9.75;7.25;;;;;17.87;80.71;100591.56;5031324;28;45648;-72
2021/07/12 07:15:48;;;;;;;;;7.50;7.50;;;;;17.91;80.75;100586.66;5050097;28;45797;-74
2021/07/12 07:18:14;;;;;;;;;6.00;6.00;;;;;17.96;80.61;100586.88;5055108;28;45465;-72
2021/07/12 07:20:39;;;;;;;;;6.50;6.25;;;;;17.98;78.82;100580.31;5050497;28;45472;-72
2021/07/12 07:23:05;;;;;;;;;7.00;7.00;;;;;17.99;79.66;100581.94;5056011;28;45547;-73
2021/07/12 07:25:30;;;;;;;;;8.25;6.75;;;;;18.01;79.36;100587.91;5044833;28;45488;-73
2021/07/12 07:27:56;;;;;;;;;6.75;5.75;;;;;18.07;79.85;100602.31;5046943;28;46149;-70
2021/07/12 07:30:21;;;;;;;;;9.25;8.50;;;;;18.10;81.69;100612.63;5048792;28;45923;-69
2021/07/12 07:32:46;;;;;;;;;9.50;7.50;;;;;18.13;79.01;100614.09;5057492;28;45570;-69
2021/07/12 07:35:13;;;;;;;;;11.00;10.50;;;;;18.14;79.73;100619.22;5052235;28;45494;-69
2021/07/12 07:37:39;;;;;;;;;7.50;7.25;;;;;18.16;80.85;100606.47;5049307;28;45471;-69
2021/07/12 07:40:07;;;;;;;;;9.00;9.00;;;;;18.23;80.45;100596.63;5048064;28;45654;-69
2021/07/12 07:42:33;;;;;;;;;10.00;8.75;;;;;18.31;80.89;100586.75;5051769;28;45569;-70
2021/07/12 07:45:01;;;;;;;;;6.25;6.25;;;;;18.36;80.40;100589.63;5030082;28;46379;-70
2021/07/12 07:47:27;;;;;;;;;8.25;8.00;;;;;18.41;79.61;100598.69;5051201;28;45585;-69
2021/07/12 07:49:53;;;;;;;;;8.25;7.75;;;;;18.45;80.10;100610.66;5052715;28;45350;-70
2021/07/12 07:52:18;;;;;;;;;10.00;9.00;;;;;18.49;79.81;100616.41;5049316;28;45449;-73
2021/07/12 07:54:43;;;;;;;;;8.50;8.25;;;;;18.51;80.15;100617.03;5051666;28;46831;-73
2021/07/12 07:57:09;;;;;;;;;9.00;7.75;;;;;18.50;80.08;100618.06;5050742;28;45602;-70
2021/07/12 07:59:34;;;;;;;;;9.50;8.75;;;;;18.50;79.95;100604.69;5049028;28;45436;-69
2021/07/12 08:01:59;;;;;;;;;7.75;6.25;;;;;18.54;83.51;100605.09;5053695;28;45462;-72
2021/07/12 08:04:25;;;;;;;;;7.50;7.50;;;;;18.60;83.68;100617.66;5048141;28;45450;-70
2021/07/12 08:06:50;;;;;;;;;7.75;7.25;;;;;18.62;80.69;100616.44;5047342;28;45346;-70
2021/07/12 08:09:16;;;;;;;;;7.00;7.00;;;;;18.67;80.69;100610.47;5048070;28;45432;-70
2021/07/12 08:11:41;;;;;;;;;7.50;7.50;;;;;18.66;80.20;100604.25;5049369;28;45437;-70
2021/07/12 08:14:06;;;;;;;;;11.50;9.25;;;;;18.66;81.10;100601.59;5049987;28;45425;-70
2021/07/12 08:16:32;;;;;;;;;14.00;10.75;;;;;18.68;79.16;100601.41;5054628;28;45682;-73
2021/07/12 08:18:58;;;;;;;;;9.75;8.75;;;;;18.74;80.32;100597.06;5055725;28;45409;-70
2021/07/12 08:21:23;;;;;;;;;10.75;8.25;;;;;18.81;80.56;100603.28;5050973;28;46024;-70
2021/07/12 08:23:49;;;;;;;;;9.75;8.25;;;;;18.88;79.48;100598.75;5058420;28;46119;-73
2021/07/12 08:26:15;;;;;;;;;7.50;7.50;;;;;18.99;80.31;100598.13;5056600;28;45612;-72
2021/07/12 08:28:41;;;;;;;;;11.00;9.75;;;;;19.04;79.76;100594.78;5048941;28;45484;-70
2021/07/12 08:31:07;;;;;;;;;11.50;11.50;;;;;19.12;79.40;100603.44;5053733;28;45464;-73
2021/07/12 08:33:32;;;;;;;;;10.25;8.75;;;;;19.25;78.36;100601.78;5054744;28;46407;-73
2021/07/12 08:35:58;;;;;;;;;8.50;8.50;;;;;19.33;77.71;100617.63;5053945;28;45561;-69
2021/07/12 08:38:24;;;;;;;;;9.75;8.25;;;;;19.41;78.33;100614.75;5060134;28;45439;-70
2021/07/12 08:40:53;;;;;;;;;12.00;9.50;;;;;19.51;77.20;100623.16;5045116;28;45548;-70
2021/07/12 08:43:18;;;;;;;;;11.50;8.75;;;;;19.48;77.53;100625.41;5045107;28;46294;-72
2021/07/12 08:45:44;;;;;;;;;11.50;10.00;;;;;19.44;78.17;100625.03;5048264;28;45435;-69
2021/07/12 08:48:10;;;;;;;;;14.25;11.25;;;;;19.44;78.92;100625.03;5046063;28;45537;-73
2021/07/12 08:50:35;;;;;;;;;11.50;8.00;;;;;19.41;78.32;100625.47;5045201;28;45704;-73
2021/07/12 08:53:01;;;;;;;;;12.25;10.00;;;;;19.35;77.41;100626.28;5037334;28;47282;-72
2021/07/12 08:55:27;;;;;;;;;8.50;8.50;;;;;19.28;78.36;100625.47;5044696;28;45592;-73
2021/07/12 08:57:58;;;;;;;;;12.50;9.00;;;;;19.28;77.71;100615.56;5047105;28;45618;-71
2021/07/12 09:00:37;;;;;;;;;10.75;10.50;;;;;19.30;77.86;100618.06;5049537;28;45540;-70
2021/07/12 09:03:19;;;;;;;;;9.25;8.00;;;;;19.30;77.88;100620.72;5047339;28;45608;-69
2021/07/12 09:05:50;;;;;;;;;11.50;11.25;;;;;19.33;78.31;100622.97;5045434;28;45703;-73
2021/07/12 09:08:36;;;;;;;;;11.75;9.25;;;;;19.33;78.74;100625.66;5030482;28;45627;-73
2021/07/12 09:11:11;;;;;;;;;11.00;9.50;;;;;19.33;78.97;100633.69;5046460;28;45705;-70
2021/07/12 09:13:48;;;;;;;;;14.00;11.25;;;;;19.28;77.65;100626.28;5047324;28;46406;-73
2021/07/12 09:16:28;;;;;;;;;16.00;13.25;;;;;19.21;79.21;100630.81;5049559;28;45987;-73
2021/07/12 09:19:10;;;;;;;;;15.75;13.75;;;;;19.09;78.13;100633.34;5044304;28;45557;-70
2021/07/12 09:21:39;;;;;;;;;13.00;11.00;;;;;19.05;80.06;100650.84;5045780;28;45754;-73
2021/07/12 09:24:17;;;;;;;;;13.00;10.75;;;;;19.05;79.06;100650.84;5044851;28;46145;-73
2021/07/12 09:26:45;;;;;;;;;13.00;12.50;;;;;19.02;79.38;100651.25;5045856;28;45579;-75
2021/07/12 09:29:22;;;;;;;;;14.00;9.50;;;;;18.98;81.04;100652.69;5049349;28;45460;-70
2021/07/12 09:31:48;;;;;;;;;12.50;11.50;;;;;18.98;84.04;100649.19;5047305;28;45427;-73
2021/07/12 09:34:15;;;;;;;;;17.25;15.00;;;;;18.99;85.09;100653.50;5047264;28;45443;-73
2021/07/12 09:36:41;;;;;;;;;14.00;11.50;;;;;18.95;85.31;100665.69;5046899;28;45375;-73
2021/07/12 09:39:21;;;;;;;;;14.00;13.75;;;;;18.91;84.85;100663.41;5044376;28;45441;-71
2021/07/12 09:41:54;;;;;;;;;13.75;12.75;;;;;18.90;82.76;100656.41;5043828;28;45528;-73
2021/07/12 09:44:21;;;;;;;;;11.00;10.75;;;;;18.89;84.41;100672.66;5043741;28;46157;-72
2021/07/12 09:46:48;;;;;;;;;10.50;9.00;;;;;18.84;83.70;100673.31;5045504;28;45514;-72
2021/07/12 09:49:16;;;;;;;;;12.50;9.00;;;;;18.85;86.29;100668.78;5044053;28;45481;-74
2021/07/12 09:51:42;;;;;;;;;8.00;8.00;;;;;18.88;85.00;100671.03;5047171;28;45377;-74
2021/07/12 09:54:23;;;;;;;;;11.00;10.00;;;;;18.90;85.92;100669.81;5047223;28;46383;-73
2021/07/12 09:56:51;;;;;;;;;9.00;8.25;;;;;18.90;86.44;100677.00;5054886;28;45564;-73
2021/07/12 09:59:18;;;;;;;;;11.75;10.25;;;;;18.91;87.02;100673.28;5050329;28;45496;-74
2021/07/12 10:01:46;;;;;;;;;8.50;8.00;;;;;18.87;86.41;100674.75;5053507;28;45423;-76
2021/07/12 10:04:11;;;;;;;;;6.50;5.50;;;;;18.80;87.07;100676.59;5052422;28;46451;-77
2021/07/12 10:06:37;;;;;;;;;14.50;12.75;;;;;18.72;84.71;100666.88;5055064;28;45623;-77
2021/07/12 10:09:03;;;;;;;;;17.25;14.50;;;;;18.75;86.96;100666.47;5025247;28;47301;-72
2021/07/12 10:11:30;;;;;;;;;13.00;11.25;;;;;18.83;86.55;100678.88;5031577;28;45957;-76
2021/07/12 10:13:57;;;;;;;;;15.75;13.50;;;;;18.95;85.40;100674.53;5047091;28;47111;-72
2021/07/12 10:16:22;;;;;;;;;15.25;14.25;;;;;19.18;85.41;100675.97;5045220;28;45828;-72
2021/07/12 10:18:48;;;;;;;;;13.00;11.50;;;;;19.54;84.28;100670.97;5045220;28;45493;-73
2021/07/12 10:21:13;;;;;;;;;13.25;12.25;;;;;19.86;83.19;100663.06;5041296;28;46090;-72
2021/07/12 10:23:39;;;;;;;;;13.50;13.00;;;;;20.41;83.46;100662.59;5046880;28;46977;-73
2021/07/12 10:26:04;;;;;;;;;14.50;13.75;;;;;21.18;80.89;100668.66;5052035;28;45608;-72
2021/07/12 10:28:41;;;;;;;;;13.50;10.50;;;;;21.89;78.75;100663.81;5049236;28;45688;-72
2021/07/12 10:31:20;;;;;;;;;14.00;11.25;;;;;22.58;74.86;100648.19;5050064;28;45658;-71
2021/07/12 10:33:46;;;;;;;;;10.50;10.00;;;;;23.33;69.71;100646.75;5050536;28;45458;-70
2021/07/12 10:36:11;;;;;;;;;15.25;12.00;;;;;23.67;67.41;100642.34;5051862;28;45404;-73
2021/07/12 10:38:38;;;;;;;;;13.50;10.75;;;;;23.99;69.68;100645.47;5045559;28;45989;-73
2021/07/12 10:41:26;;;;;;;;;10.50;8.25;;;;;24.69;66.81;100648.88;5048384;28;45612;-72
2021/07/12 10:43:57;;;;;;;;;8.50;7.50;;;;;25.29;68.11;100660.91;5044723;28;48007;-74
2021/07/12 10:46:29;;;;;;;;;10.00;7.00;;;;;25.61;65.17;100660.28;5048831;28;45562;-73
2021/07/12 10:48:56;;;;;;;;;12.75;10.25;;;;;25.78;63.40;100650.19;5045753;28;45535;-74
2021/07/12 10:51:23;;;;;;;;;11.75;11.00;;;;;25.82;64.38;100642.41;5048306;28;45944;-73
2021/07/12 10:54:02;;;;;;;;;10.75;8.50;;;;;26.09;65.05;100640.59;5054715;28;45812;-71
2021/07/12 10:56:59;;;;;;;;;9.75;8.50;;;;;26.29;64.39;100634.56;5053139;28;45542;-71
2021/07/12 10:59:26;;;;;;;;;13.00;11.00;;;;;26.53;64.12;100628.81;5047785;28;45775;-73
2021/07/12 11:01:51;;;;;;;;;10.50;9.00;;;;;26.92;61.86;100625.88;5049043;28;45479;-73
2021/07/12 11:04:37;;;;;;;;;11.75;10.00;;;;;27.77;62.53;100621.19;5048234;28;45598;-71
2021/07/12 11:07:05;;;;;;;;;10.00;9.50;;;;;28.17;59.05;100613.44;5063135;28;45638;-71
2021/07/12 11:09:53;;;;;;;;;11.00;9.50;;;;;28.24;54.82;100619.41;5048616;28;45485;-73
2021/07/12 11:12:24;;;;;;;;;10.25;9.25;;;;;28.49;59.47;100610.50;5041914;28;45639;-72
2021/07/12 11:15:13;;;;;;;;;10.25;8.75;;;;;28.29;52.79;100614.81;5047952;28;46557;-73
2021/07/12 11:17:52;;;;;;;;;7.75;7.00;;;;;27.79;57.36;100597.28;5047501;28;45896;-72
2021/07/12 11:20:40;;;;;;;;;8.00;8.00;;;;;27.12;57.40;100604.31;5048122;28;45777;-72
2021/07/12 11:23:05;;;;;;;;;8.50;8.00;;;;;26.58;58.80;100605.31;5053510;28;45547;-72
2021/07/12 11:25:42;;;;;;;;;7.50;7.50;;;;;26.15;61.03;100601.63;5028435;28;46393;-73
2021/07/12 11:28:14;;;;;;;;;9.50;8.25;;;;;25.86;60.41;100601.06;5035991;28;46276;-72